Startpagina
METAR-TAF:

METAR-TAF

Vliegvelden :

Saarbrücken, Duitsland

Flughafen Saarbrücken

breedte: 49-13N, lengte: 007-07E, hoogte: 322 m

Actueel weer

Dit bericht is 20 minuten geleden gemaakt, om 02:50 UTC
Wind 9 kt uit het westen
Temperatuur 19°C
Vochtigheid 94%
Druk 1016 hPa
Zicht 10 km of meer
Verspreide wolken op 1100 ft
Gebroken wolken op 2000 ft

METAR: EDDR 240250Z 26009KT 9999 SCT011 BKN020 19/18 Q1016

Tijdstip: 05:10 (03:10 UTC)

Verwachting

Dit bericht is 1 uur en het 15 minuten geleden gemaakt, om 01:55 UTC
Verwachting geldig van 24 om 01 UTC tot 24 om 24 UTC
Wind 3 kt uit het zuidwesten
Zicht 10 km of meer
Gebroken wolken op 1200 ft
Wijzigt naar
van 24 om 04 UTC tot 24 om 07 UTC
Wind 8 kt uit het westen
Verspreide wolken op 2000 ft
Wijzigt naar
van 24 om 18 UTC tot 24 om 21 UTC
Wind 3 kt uit variabele richting

TAF: EDDR 240155Z 2401/2424 22003KT 9999 BKN012 BECMG 2404/2407 27008KT SCT020 BECMG 2418/2421 VRB03KT

Waarnemingen en weersverwachtingen van meer dan 4000 vliegvelden (METAR en TAF).

De beschikbare stations zijn de gele en rode punten op de kaart.

Ga met uw muis naar het station om de naam te zien.

Klik dan om waarnemingen en weersverwachtingen te zien.

kaart wijzigen: klik op de groene knoppen met een zwart kruis om in te zoomen, op de groene knop met een streepje om uit te zoomen of op de groene pijlen voor aangrenzende kaarten.


METAR-TAF: